This is the latest recevied weather packets stored in our database for station/object K6GMW. If no packets are shown the sender has not sent any weather packets the latest 10 day(s).
| Time | Temp. | Humidity | Pressure | Rain* | Wind** | Luminosity | Snow |
|---|---|---|---|---|---|---|---|
| 1777488276 | 17.22° C | 95% | 1015.3 hPa | 1.27 mm | - | 57 W/m² | - |
| 1777487974 | 17.22° C | 95% | 1014.7 hPa | 0 mm | - | 41 W/m² | - |
| 1777487671 | 17.22° C | 95% | 1015.2 hPa | 0 mm | - | 26 W/m² | - |
| 1777487368 | 17.22° C | 95% | 1014.7 hPa | 0 mm | - | 49 W/m² | - |
| 1777487066 | 17.22° C | 95% | 1014.4 hPa | 0 mm | - | 86 W/m² | - |
| 1777486761 | 17.22° C | 95% | 1014.3 hPa | 0 mm | - | 122 W/m² | - |
| 1777486460 | 17.22° C | 95% | 1014.8 hPa | 0.51 mm | - | 88 W/m² | - |
| 1777486157 | 17.22° C | 96% | 1015 hPa | 2.29 mm | - | 161 W/m² | - |
| 1777485855 | 17.22° C | 95% | 1015.3 hPa | 2.29 mm | - | 125 W/m² | - |
| 1777485555 | 17.22° C | 95% | 1015.8 hPa | 0.51 mm | - | 87 W/m² | - |
| 1777485251 | 17.78° C | 95% | 1017.1 hPa | 0 mm | - | 37 W/m² | - |
| 1777484947 | 17.78° C | 95% | 1017.4 hPa | 0 mm | - | 23 W/m² | - |
| 1777484645 | 17.78° C | 94% | 1016.9 hPa | 0 mm | - | 26 W/m² | - |
| 1777484341 | 17.78° C | 94% | 1016.1 hPa | 0 mm | - | 35 W/m² | - |
| 1777484036 | 17.78° C | 94% | 1016.1 hPa | 0 mm | - | 26 W/m² | - |
| 1777483734 | 17.78° C | 95% | 1015.4 hPa | 0 mm | - | 33 W/m² | - |
| 1777483429 | 17.78° C | 95% | 1015 hPa | 0 mm | - | 32 W/m² | - |
| 1777483124 | 18.33° C | 96% | 1015 hPa | 0 mm | - | 34 W/m² | - |
| 1777482822 | 18.33° C | 96% | 1014.5 hPa | 0 mm | - | 35 W/m² | - |
| 1777482517 | 18.33° C | 96% | 1014.7 hPa | 0 mm | - | 39 W/m² | - |
| 1777482216 | 18.33° C | 96% | 1015.4 hPa | 0 mm | - | 34 W/m² | - |
| 1777481912 | 18.89° C | 96% | 1014.7 hPa | 0 mm | - | 39 W/m² | - |
| 1777481610 | 18.89° C | 96% | 1015.5 hPa | 0 mm | - | 32 W/m² | - |
| 1777481307 | 18.89° C | 96% | 1015.1 hPa | 0 mm | - | 53 W/m² | - |
| 1777481003 | 18.89° C | 96% | 1014.7 hPa | 0 mm | - | 77 W/m² | - |
* Rain latest hour (hover to see other rain measurements)
** Current wind speed in m/s (hover to see current wind gust speed)